Evelyn Maersk — OXHV2 — position and weather

sailwx.info

Track history (hours):
 
Tides and Currents Weather Stations Pressure Air Temp Water Temp Dewpoint Dewpoint Depression Visibility Wind Speed Wind Dir Waves Ship Positions

Evelyn Maersk

Last reported at 2016-Dec-04 07:24 UTC. Time now 2016-Dec-06 12:16 UTC.
Position N 36°34' E 122°57'.

Length 398 m; draft 13 m.

Type: Ship (hazmat cat A). MMSI: 220496000.

Date/timePositionNaut miles runAvg speedWind from/ knotsBaromVisibWave heightAir tempDewpointWater temp
2016-Dec-04 07:24N 36°34' E 122°57'1720.3
2016-Dec-04 06:32N 36°49' E 123°08'12918.5
2016-Dec-03 23:33N 38°24' E 121°18'1919.2
2016-Dec-03 22:34N 38°32' E 120°55'1414.5
2016-Dec-03 21:33N 38°36' E 120°38'4219.6
2016-Dec-03 19:24N 38°39' E 119°44'3819.1
2016-Dec-03 17:23N 38°45' E 118°55'1819.7
2016-Dec-03 16:28N 38°48' E 118°32'1718.7
2016-Dec-03 15:33N 38°52' E 118°11'20 3.8
2016-Dec-03 10:20N 38°60' E 117°47'0 0.0
2016-Dec-03 09:32N 38°60' E 117°47'0 0.0
2016-Dec-03 08:32N 38°60' E 117°47'0 0.0
2016-Dec-03 07:26N 38°60' E 117°47'0 0.0
2016-Dec-03 06:26N 38°60' E 117°47'0 0.0
2016-Dec-03 05:32N 38°60' E 117°47'0 0.0
2016-Dec-03 04:20N 38°60' E 117°47'0 0.0
2016-Dec-03 03:32N 38°60' E 117°47'0 0.0
2016-Dec-03 02:32N 38°60' E 117°47'0 0.0
2016-Dec-03 01:32N 38°60' E 117°47'0 0.0
2016-Dec-03 00:26N 38°60' E 117°47'0 0.0
2016-Dec-02 23:32N 38°60' E 117°47'0 0.0
2016-Dec-02 22:32N 38°60' E 117°47'0 0.0
2016-Dec-02 21:32N 38°60' E 117°47'0 0.0
2016-Dec-02 20:32N 38°60' E 117°47'0 0.0
2016-Dec-02 19:20N 38°60' E 117°47'0 0.0
2016-Dec-02 18:26N 38°60' E 117°47'0 0.0
2016-Dec-02 15:32N 38°60' E 117°47'0 0.0
2016-Dec-02 14:26N 38°60' E 117°47'0 0.0
2016-Dec-02 12:32N 38°60' E 117°47'0 0.0
2016-Dec-02 11:26N 38°60' E 117°47'0 0.0
2016-Dec-02 10:32N 38°60' E 117°47'0 0.0
2016-Dec-02 09:32N 38°60' E 117°47'0 0.0
2016-Dec-02 08:32N 38°60' E 117°47'0 0.0
2016-Dec-02 07:08N 38°60' E 117°47'0 0.0
2016-Dec-02 06:32N 38°60' E 117°47'0 0.0
2016-Dec-02 05:32N 38°60' E 117°47'0 0.0
2016-Dec-02 04:32N 38°60' E 117°47'1 1.1
2016-Dec-02 03:33N 38°59' E 117°48'8 8.5
2016-Dec-02 02:33N 38°57' E 117°58'9 8.6
2016-Dec-02 01:33N 38°55' E 118°09'1010.0
2016-Dec-02 00:33N 38°52' E 118°21'1616.0
2016-Dec-01 23:32N 38°49' E 118°42'1616.2
2016-Dec-01 22:31N 38°48' E 119°03'7915.8
2016-Dec-01 17:33N 38°39' E 120°43'1212.1
2016-Dec-01 16:33N 38°36' E 120°58'1514.8
2016-Dec-01 15:33N 38°28' E 121°14'  
2016-Nov-29 09:13N 23°54' E 118°28'3017.6
2016-Nov-29 07:32N 23°38' E 118°00'229 6.9
2016-Nov-27 22:32N 22°20' E 114°07'0 0.2
2016-Nov-27 20:31N 22°20' E 114°07'0 0.0
2016-Nov-27 17:13N 22°20' E 114°07'0 0.0
2016-Nov-27 16:31N 22°20' E 114°07'0 0.0
2016-Nov-27 15:25N 22°20' E 114°07'0 0.0
2016-Nov-27 14:30N 22°20' E 114°07'0 0.0
2016-Nov-27 06:07N 22°20' E 114°07'0 0.0
2016-Nov-27 00:33N 22°20' E 114°07'  
Track history (hours):
 
Tides and Currents Weather Stations Pressure Air Temp Water Temp Dewpoint Dewpoint Depression Visibility Wind Speed Wind Dir Waves Ship Positions

Evelyn Maersk

Last reported at 2016-Dec-04 07:24 UTC. Time now 2016-Dec-06 12:16 UTC.
Position N 36°34' E 122°57'.

Length 398 m; draft 13 m.

Type: Ship (hazmat cat A). MMSI: 220496000.

Date/timePositionNaut miles runAvg speedWind from/ knotsBaromVisibWave heightAir tempDewpointWater temp
2016-Dec-04 07:24N 36°34' E 122°57'1720.3
2016-Dec-04 06:32N 36°49' E 123°08'12918.5
2016-Dec-03 23:33N 38°24' E 121°18'1919.2
2016-Dec-03 22:34N 38°32' E 120°55'1414.5
2016-Dec-03 21:33N 38°36' E 120°38'4219.6
2016-Dec-03 19:24N 38°39' E 119°44'3819.1
2016-Dec-03 17:23N 38°45' E 118°55'1819.7
2016-Dec-03 16:28N 38°48' E 118°32'1718.7
2016-Dec-03 15:33N 38°52' E 118°11'20 3.8
2016-Dec-03 10:20N 38°60' E 117°47'0 0.0
2016-Dec-03 09:32N 38°60' E 117°47'0 0.0
2016-Dec-03 08:32N 38°60' E 117°47'0 0.0
2016-Dec-03 07:26N 38°60' E 117°47'0 0.0
2016-Dec-03 06:26N 38°60' E 117°47'0 0.0
2016-Dec-03 05:32N 38°60' E 117°47'0 0.0
2016-Dec-03 04:20N 38°60' E 117°47'0 0.0
2016-Dec-03 03:32N 38°60' E 117°47'0 0.0
2016-Dec-03 02:32N 38°60' E 117°47'0 0.0
2016-Dec-03 01:32N 38°60' E 117°47'0 0.0
2016-Dec-03 00:26N 38°60' E 117°47'0 0.0
2016-Dec-02 23:32N 38°60' E 117°47'0 0.0
2016-Dec-02 22:32N 38°60' E 117°47'0 0.0
2016-Dec-02 21:32N 38°60' E 117°47'0 0.0
2016-Dec-02 20:32N 38°60' E 117°47'0 0.0
2016-Dec-02 19:20N 38°60' E 117°47'0 0.0
2016-Dec-02 18:26N 38°60' E 117°47'0 0.0
2016-Dec-02 15:32N 38°60' E 117°47'0 0.0
2016-Dec-02 14:26N 38°60' E 117°47'0 0.0
2016-Dec-02 12:32N 38°60' E 117°47'0 0.0
2016-Dec-02 11:26N 38°60' E 117°47'0 0.0
2016-Dec-02 10:32N 38°60' E 117°47'0 0.0
2016-Dec-02 09:32N 38°60' E 117°47'0 0.0
2016-Dec-02 08:32N 38°60' E 117°47'0 0.0
2016-Dec-02 07:08N 38°60' E 117°47'0 0.0
2016-Dec-02 06:32N 38°60' E 117°47'0 0.0
2016-Dec-02 05:32N 38°60' E 117°47'0 0.0
2016-Dec-02 04:32N 38°60' E 117°47'1 1.1
2016-Dec-02 03:33N 38°59' E 117°48'8 8.5
2016-Dec-02 02:33N 38°57' E 117°58'9 8.6
2016-Dec-02 01:33N 38°55' E 118°09'1010.0
2016-Dec-02 00:33N 38°52' E 118°21'1616.0
2016-Dec-01 23:32N 38°49' E 118°42'1616.2
2016-Dec-01 22:31N 38°48' E 119°03'7915.8
2016-Dec-01 17:33N 38°39' E 120°43'1212.1
2016-Dec-01 16:33N 38°36' E 120°58'1514.8
2016-Dec-01 15:33N 38°28' E 121°14'  
2016-Nov-29 09:13N 23°54' E 118°28'3017.6
2016-Nov-29 07:32N 23°38' E 118°00'229 6.9
2016-Nov-27 22:32N 22°20' E 114°07'0 0.2
2016-Nov-27 20:31N 22°20' E 114°07'0 0.0
2016-Nov-27 17:13N 22°20' E 114°07'0 0.0
2016-Nov-27 16:31N 22°20' E 114°07'0 0.0
2016-Nov-27 15:25N 22°20' E 114°07'0 0.0
2016-Nov-27 14:30N 22°20' E 114°07'0 0.0
2016-Nov-27 06:07N 22°20' E 114°07'0 0.0
2016-Nov-27 00:33N 22°20' E 114°07'  

Dump ship's entire track history